sensor_id;sensor_type;location;lat;lon;timestamp;temperature;humidity
41944;DHT22;27636;52.610;13.244;2022-11-15T00:02:52;4.10;99.90
41944;DHT22;27636;52.610;13.244;2022-11-15T00:08:15;4.00;99.90
41944;DHT22;27636;52.610;13.244;2022-11-15T00:13:38;4.00;99.90
41944;DHT22;27636;52.610;13.244;2022-11-15T00:19:00;4.00;99.90
41944;DHT22;27636;52.610;13.244;2022-11-15T00:24:23;4.30;99.90
41944;DHT22;27636;52.610;13.244;2022-11-15T00:29:45;4.20;99.90
41944;DHT22;27636;52.610;13.244;2022-11-15T00:35:07;4.00;99.90
41944;DHT22;27636;52.610;13.244;2022-11-15T00:40:31;3.80;99.90
41944;DHT22;27636;52.610;13.244;2022-11-15T00:45:53;3.70;99.90
41944;DHT22;27636;52.610;13.244;2022-11-15T00:51:15;3.70;99.90
41944;DHT22;27636;52.610;13.244;2022-11-15T00:56:38;3.70;99.90
41944;DHT22;27636;52.610;13.244;2022-11-15T01:02:00;3.60;99.90
41944;DHT22;27636;52.610;13.244;2022-11-15T01:07:23;3.50;99.90
41944;DHT22;27636;52.610;13.244;2022-11-15T01:12:46;3.50;99.90
41944;DHT22;27636;52.610;13.244;2022-11-15T01:18:08;3.50;99.90
41944;DHT22;27636;52.610;13.244;2022-11-15T01:23:30;3.50;99.90
41944;DHT22;27636;52.610;13.244;2022-11-15T01:28:54;3.40;99.90
41944;DHT22;27636;52.610;13.244;2022-11-15T01:34:16;3.50;99.90
41944;DHT22;27636;52.610;13.244;2022-11-15T01:39:38;3.40;99.90
41944;DHT22;27636;52.610;13.244;2022-11-15T01:45:01;3.20;99.90
41944;DHT22;27636;52.610;13.244;2022-11-15T01:50:28;3.40;99.90
41944;DHT22;27636;52.610;13.244;2022-11-15T01:55:52;3.40;99.90
41944;DHT22;27636;52.610;13.244;2022-11-15T02:01:17;3.30;99.90
41944;DHT22;27636;52.610;13.244;2022-11-15T02:06:40;3.30;99.90
41944;DHT22;27636;52.610;13.244;2022-11-15T02:12:03;3.20;99.90
41944;DHT22;27636;52.610;13.244;2022-11-15T02:17:46;3.20;99.90
41944;DHT22;27636;52.610;13.244;2022-11-15T02:23:36;3.10;99.90
41944;DHT22;27636;52.610;13.244;2022-11-15T02:29:04;3.10;99.90
41944;DHT22;27636;52.610;13.244;2022-11-15T02:34:34;3.10;99.90
41944;DHT22;27636;52.610;13.244;2022-11-15T02:40:03;3.10;99.90
41944;DHT22;27636;52.610;13.244;2022-11-15T02:45:30;3.10;99.90
41944;DHT22;27636;52.610;13.244;2022-11-15T02:50:55;3.30;99.90
41944;DHT22;27636;52.610;13.244;2022-11-15T02:56:17;3.20;99.90
41944;DHT22;27636;52.610;13.244;2022-11-15T03:01:46;3.20;99.90
41944;DHT22;27636;52.610;13.244;2022-11-15T03:07:15;3.10;99.90
41944;DHT22;27636;52.610;13.244;2022-11-15T03:12:45;3.00;99.90
41944;DHT22;27636;52.610;13.244;2022-11-15T03:18:14;3.10;99.90
41944;DHT22;27636;52.610;13.244;2022-11-15T03:23:39;3.30;99.90
41944;DHT22;27636;52.610;13.244;2022-11-15T03:29:04;3.30;99.90
41944;DHT22;27636;52.610;13.244;2022-11-15T03:34:30;3.50;99.90
41944;DHT22;27636;52.610;13.244;2022-11-15T03:39:55;3.50;99.90
41944;DHT22;27636;52.610;13.244;2022-11-15T03:45:21;3.40;99.90
41944;DHT22;27636;52.610;13.244;2022-11-15T03:50:45;3.30;99.90
41944;DHT22;27636;52.610;13.244;2022-11-15T03:56:09;3.30;99.90
41944;DHT22;27636;52.610;13.244;2022-11-15T04:01:30;3.50;99.90
41944;DHT22;27636;52.610;13.244;2022-11-15T04:06:52;3.50;99.90
41944;DHT22;27636;52.610;13.244;2022-11-15T04:12:15;3.40;99.90
41944;DHT22;27636;52.610;13.244;2022-11-15T04:17:53;3.40;99.90
41944;DHT22;27636;52.610;13.244;2022-11-15T04:23:17;3.60;99.90
41944;DHT22;27636;52.610;13.244;2022-11-15T04:29:00;3.40;99.90
41944;DHT22;27636;52.610;13.244;2022-11-15T04:34:40;3.20;99.90
41944;DHT22;27636;52.610;13.244;2022-11-15T04:40:03;3.10;99.90
41944;DHT22;27636;52.610;13.244;2022-11-15T04:45:26;3.10;99.90
41944;DHT22;27636;52.610;13.244;2022-11-15T04:50:48;3.10;99.90
41944;DHT22;27636;52.610;13.244;2022-11-15T04:56:10;3.00;99.90
41944;DHT22;27636;52.610;13.244;2022-11-15T05:01:35;3.10;99.90
41944;DHT22;27636;52.610;13.244;2022-11-15T05:07:05;3.00;99.90
41944;DHT22;27636;52.610;13.244;2022-11-15T05:12:27;2.90;99.90
41944;DHT22;27636;52.610;13.244;2022-11-15T05:17:50;3.10;99.90
41944;DHT22;27636;52.610;13.244;2022-11-15T05:23:12;3.30;99.90
41944;DHT22;27636;52.610;13.244;2022-11-15T05:28:34;3.10;99.90
41944;DHT22;27636;52.610;13.244;2022-11-15T05:34:00;3.00;99.90
41944;DHT22;27636;52.610;13.244;2022-11-15T05:39:23;3.00;99.90
41944;DHT22;27636;52.610;13.244;2022-11-15T05:44:48;2.90;99.90
41944;DHT22;27636;52.610;13.244;2022-11-15T05:50:12;2.90;99.90
41944;DHT22;27636;52.610;13.244;2022-11-15T05:55:38;2.80;99.90
41944;DHT22;27636;52.610;13.244;2022-11-15T06:01:00;2.70;99.90
41944;DHT22;27636;52.610;13.244;2022-11-15T06:06:23;2.70;99.90
41944;DHT22;27636;52.610;13.244;2022-11-15T06:11:45;2.70;99.90
41944;DHT22;27636;52.610;13.244;2022-11-15T06:17:07;2.70;99.90
41944;DHT22;27636;52.610;13.244;2022-11-15T06:22:33;2.90;99.90
41944;DHT22;27636;52.610;13.244;2022-11-15T06:27:56;3.00;99.90
41944;DHT22;27636;52.610;13.244;2022-11-15T06:33:18;2.90;99.90
41944;DHT22;27636;52.610;13.244;2022-11-15T06:38:42;3.10;99.90
41944;DHT22;27636;52.610;13.244;2022-11-15T06:44:04;3.20;99.90
41944;DHT22;27636;52.610;13.244;2022-11-15T06:49:26;3.10;99.90
41944;DHT22;27636;52.610;13.244;2022-11-15T06:54:49;3.00;99.90
41944;DHT22;27636;52.610;13.244;2022-11-15T07:00:12;3.10;99.90
41944;DHT22;27636;52.610;13.244;2022-11-15T07:05:35;3.10;99.90
41944;DHT22;27636;52.610;13.244;2022-11-15T07:11:03;3.30;99.90
41944;DHT22;27636;52.610;13.244;2022-11-15T07:16:27;3.40;99.90
41944;DHT22;27636;52.610;13.244;2022-11-15T07:21:50;3.50;99.90
41944;DHT22;27636;52.610;13.244;2022-11-15T07:27:13;3.70;99.90
41944;DHT22;27636;52.610;13.244;2022-11-15T07:32:36;3.80;99.90
41944;DHT22;27636;52.610;13.244;2022-11-15T07:37:59;4.10;99.90
41944;DHT22;27636;52.610;13.244;2022-11-15T07:43:23;4.50;99.90
41944;DHT22;27636;52.610;13.244;2022-11-15T07:48:45;4.70;99.90
41944;DHT22;27636;52.610;13.244;2022-11-15T07:54:07;4.90;99.90
41944;DHT22;27636;52.610;13.244;2022-11-15T07:59:30;5.10;99.90
41944;DHT22;27636;52.610;13.244;2022-11-15T08:04:52;5.30;99.90
41944;DHT22;27636;52.610;13.244;2022-11-15T08:10:14;5.50;99.90
41944;DHT22;27636;52.610;13.244;2022-11-15T08:15:41;5.60;99.90
41944;DHT22;27636;52.610;13.244;2022-11-15T08:21:05;5.90;99.90
41944;DHT22;27636;52.610;13.244;2022-11-15T08:26:27;6.10;99.90
41944;DHT22;27636;52.610;13.244;2022-11-15T08:31:54;6.70;99.90
41944;DHT22;27636;52.610;13.244;2022-11-15T08:37:17;7.10;99.90
41944;DHT22;27636;52.610;13.244;2022-11-15T08:42:39;7.70;99.90
41944;DHT22;27636;52.610;13.244;2022-11-15T08:48:03;8.70;99.90
41944;DHT22;27636;52.610;13.244;2022-11-15T08:53:25;9.80;99.90
41944;DHT22;27636;52.610;13.244;2022-11-15T08:58:47;11.60;99.90
41944;DHT22;27636;52.610;13.244;2022-11-15T09:04:10;12.70;99.90
41944;DHT22;27636;52.610;13.244;2022-11-15T09:09:33;12.80;99.90
41944;DHT22;27636;52.610;13.244;2022-11-15T09:14:55;13.30;99.90
41944;DHT22;27636;52.610;13.244;2022-11-15T09:20:18;13.60;99.90
41944;DHT22;27636;52.610;13.244;2022-11-15T09:25:40;13.50;99.90
41944;DHT22;27636;52.610;13.244;2022-11-15T09:31:04;13.90;99.90
41944;DHT22;27636;52.610;13.244;2022-11-15T09:36:28;13.20;99.90
41944;DHT22;27636;52.610;13.244;2022-11-15T09:42:03;12.10;99.90
41944;DHT22;27636;52.610;13.244;2022-11-15T09:47:41;11.40;99.90
41944;DHT22;27636;52.610;13.244;2022-11-15T09:53:11;10.90;99.90
41944;DHT22;27636;52.610;13.244;2022-11-15T09:58:23;10.50;99.90
41944;DHT22;27636;52.610;13.244;2022-11-15T10:03:30;10.40;99.90
41944;DHT22;27636;52.610;13.244;2022-11-15T10:08:51;10.60;99.90
41944;DHT22;27636;52.610;13.244;2022-11-15T10:14:00;10.80;99.90
41944;DHT22;27636;52.610;13.244;2022-11-15T10:19:11;10.80;99.90
41944;DHT22;27636;52.610;13.244;2022-11-15T10:24:19;10.80;99.90
41944;DHT22;27636;52.610;13.244;2022-11-15T10:29:24;11.00;99.90
41944;DHT22;27636;52.610;13.244;2022-11-15T10:34:34;11.30;99.90
41944;DHT22;27636;52.610;13.244;2022-11-15T10:39:39;11.80;99.90
41944;DHT22;27636;52.610;13.244;2022-11-15T10:44:44;12.40;99.90
41944;DHT22;27636;52.610;13.244;2022-11-15T10:49:54;12.70;99.90
41944;DHT22;27636;52.610;13.244;2022-11-15T10:55:04;12.90;99.90
41944;DHT22;27636;52.610;13.244;2022-11-15T11:00:27;12.50;99.90
41944;DHT22;27636;52.610;13.244;2022-11-15T11:05:33;12.60;99.90
41944;DHT22;27636;52.610;13.244;2022-11-15T11:10:52;12.40;99.90
41944;DHT22;27636;52.610;13.244;2022-11-15T11:16:34;12.60;99.90
41944;DHT22;27636;52.610;13.244;2022-11-15T11:21:48;13.70;99.90
41944;DHT22;27636;52.610;13.244;2022-11-15T11:27:06;14.30;99.90
41944;DHT22;27636;52.610;13.244;2022-11-15T11:32:28;13.50;99.90
41944;DHT22;27636;52.610;13.244;2022-11-15T11:37:39;13.00;99.90
41944;DHT22;27636;52.610;13.244;2022-11-15T11:42:50;12.90;99.90
41944;DHT22;27636;52.610;13.244;2022-11-15T11:48:12;13.20;99.90
41944;DHT22;27636;52.610;13.244;2022-11-15T11:53:23;13.10;99.90
41944;DHT22;27636;52.610;13.244;2022-11-15T11:58:34;12.90;99.90
41944;DHT22;27636;52.610;13.244;2022-11-15T12:03:43;12.70;99.90
41944;DHT22;27636;52.610;13.244;2022-11-15T12:08:52;13.00;99.90
41944;DHT22;27636;52.610;13.244;2022-11-15T12:13:59;14.20;99.90
41944;DHT22;27636;52.610;13.244;2022-11-15T12:19:04;15.80;99.90
41944;DHT22;27636;52.610;13.244;2022-11-15T12:24:13;16.50;99.90
41944;DHT22;27636;52.610;13.244;2022-11-15T12:29:25;16.80;99.20
41944;DHT22;27636;52.610;13.244;2022-11-15T12:34:40;17.40;97.20
41944;DHT22;27636;52.610;13.244;2022-11-15T12:40:16;17.60;94.50
41944;DHT22;27636;52.610;13.244;2022-11-15T12:45:29;17.50;95.30
41944;DHT22;27636;52.610;13.244;2022-11-15T12:50:55;17.40;94.10
41944;DHT22;27636;52.610;13.244;2022-11-15T12:56:21;16.90;94.90
41944;DHT22;27636;52.610;13.244;2022-11-15T13:01:58;16.60;95.90
41944;DHT22;27636;52.610;13.244;2022-11-15T13:07:04;16.30;96.30
41944;DHT22;27636;52.610;13.244;2022-11-15T13:12:08;16.20;97.40
41944;DHT22;27636;52.610;13.244;2022-11-15T13:17:27;16.30;96.90
41944;DHT22;27636;52.610;13.244;2022-11-15T13:22:39;16.30;97.70
41944;DHT22;27636;52.610;13.244;2022-11-15T13:27:54;15.90;98.00
41944;DHT22;27636;52.610;13.244;2022-11-15T13:33:09;15.10;99.80
41944;DHT22;27636;52.610;13.244;2022-11-15T13:38:19;14.00;99.90
41944;DHT22;27636;52.610;13.244;2022-11-15T13:43:34;13.70;99.90
41944;DHT22;27636;52.610;13.244;2022-11-15T13:48:38;13.30;99.90
41944;DHT22;27636;52.610;13.244;2022-11-15T13:53:44;13.10;99.90
41944;DHT22;27636;52.610;13.244;2022-11-15T13:58:50;13.00;99.90
41944;DHT22;27636;52.610;13.244;2022-11-15T14:03:56;12.90;99.90
41944;DHT22;27636;52.610;13.244;2022-11-15T14:09:14;12.80;99.90
41944;DHT22;27636;52.610;13.244;2022-11-15T14:14:21;12.80;99.90
41944;DHT22;27636;52.610;13.244;2022-11-15T14:19:38;12.50;99.90
41944;DHT22;27636;52.610;13.244;2022-11-15T14:24:45;12.50;99.90
41944;DHT22;27636;52.610;13.244;2022-11-15T14:29:49;12.20;99.90
41944;DHT22;27636;52.610;13.244;2022-11-15T14:34:56;12.30;99.90
41944;DHT22;27636;52.610;13.244;2022-11-15T14:40:00;12.20;99.90
41944;DHT22;27636;52.610;13.244;2022-11-15T14:45:10;12.10;99.90
41944;DHT22;27636;52.610;13.244;2022-11-15T14:50:18;11.80;99.90
41944;DHT22;27636;52.610;13.244;2022-11-15T14:55:24;11.60;99.90
41944;DHT22;27636;52.610;13.244;2022-11-15T15:00:27;11.40;99.90
41944;DHT22;27636;52.610;13.244;2022-11-15T15:05:40;10.90;99.90
41944;DHT22;27636;52.610;13.244;2022-11-15T15:10:45;10.80;99.90
41944;DHT22;27636;52.610;13.244;2022-11-15T15:15:49;10.60;99.90
41944;DHT22;27636;52.610;13.244;2022-11-15T15:20:56;10.70;99.90
41944;DHT22;27636;52.610;13.244;2022-11-15T15:26:04;10.50;99.90
41944;DHT22;27636;52.610;13.244;2022-11-15T15:31:08;10.50;99.90
41944;DHT22;27636;52.610;13.244;2022-11-15T15:36:17;10.30;99.90
41944;DHT22;27636;52.610;13.244;2022-11-15T15:41:21;10.00;99.90
41944;DHT22;27636;52.610;13.244;2022-11-15T15:46:25;9.60;99.90
41944;DHT22;27636;52.610;13.244;2022-11-15T15:51:29;9.40;99.90
41944;DHT22;27636;52.610;13.244;2022-11-15T15:56:33;9.10;99.90
41944;DHT22;27636;52.610;13.244;2022-11-15T16:01:36;8.70;99.90
41944;DHT22;27636;52.610;13.244;2022-11-15T16:06:41;8.40;99.90
41944;DHT22;27636;52.610;13.244;2022-11-15T16:11:47;8.20;99.90
41944;DHT22;27636;52.610;13.244;2022-11-15T16:16:50;8.10;99.90
41944;DHT22;27636;52.610;13.244;2022-11-15T16:21:54;8.20;99.90
41944;DHT22;27636;52.610;13.244;2022-11-15T16:26:58;8.20;99.90
41944;DHT22;27636;52.610;13.244;2022-11-15T16:32:01;8.30;99.90
41944;DHT22;27636;52.610;13.244;2022-11-15T16:37:11;8.40;99.90
41944;DHT22;27636;52.610;13.244;2022-11-15T16:42:21;8.60;99.90
41944;DHT22;27636;52.610;13.244;2022-11-15T16:47:25;8.60;99.90
41944;DHT22;27636;52.610;13.244;2022-11-15T16:52:29;8.80;99.90
41944;DHT22;27636;52.610;13.244;2022-11-15T16:57:33;8.80;99.90
41944;DHT22;27636;52.610;13.244;2022-11-15T17:02:36;8.80;99.90
41944;DHT22;27636;52.610;13.244;2022-11-15T17:07:41;8.70;99.90
41944;DHT22;27636;52.610;13.244;2022-11-15T17:12:45;8.60;99.90
41944;DHT22;27636;52.610;13.244;2022-11-15T17:17:50;8.50;99.90
41944;DHT22;27636;52.610;13.244;2022-11-15T17:22:55;8.30;99.90
41944;DHT22;27636;52.610;13.244;2022-11-15T17:27:58;8.20;99.90
41944;DHT22;27636;52.610;13.244;2022-11-15T17:33:02;8.00;99.90
41944;DHT22;27636;52.610;13.244;2022-11-15T17:38:06;7.90;99.90
41944;DHT22;27636;52.610;13.244;2022-11-15T17:43:10;7.70;99.90
41944;DHT22;27636;52.610;13.244;2022-11-15T17:48:13;7.70;99.90
41944;DHT22;27636;52.610;13.244;2022-11-15T17:53:18;7.50;99.90
41944;DHT22;27636;52.610;13.244;2022-11-15T17:58:21;7.40;99.90
41944;DHT22;27636;52.610;13.244;2022-11-15T18:03:25;7.30;99.90
41944;DHT22;27636;52.610;13.244;2022-11-15T18:08:29;7.20;99.90
41944;DHT22;27636;52.610;13.244;2022-11-15T18:13:34;7.10;99.90
41944;DHT22;27636;52.610;13.244;2022-11-15T18:18:38;7.00;99.90
41944;DHT22;27636;52.610;13.244;2022-11-15T18:23:43;6.90;99.90
41944;DHT22;27636;52.610;13.244;2022-11-15T18:28:48;6.80;99.90
41944;DHT22;27636;52.610;13.244;2022-11-15T18:33:52;6.60;99.90
41944;DHT22;27636;52.610;13.244;2022-11-15T18:38:59;6.50;99.90
41944;DHT22;27636;52.610;13.244;2022-11-15T18:44:04;6.50;99.90
41944;DHT22;27636;52.610;13.244;2022-11-15T18:49:10;6.30;99.90
41944;DHT22;27636;52.610;13.244;2022-11-15T18:54:16;6.20;99.90
41944;DHT22;27636;52.610;13.244;2022-11-15T18:59:20;6.10;99.90
41944;DHT22;27636;52.610;13.244;2022-11-15T19:04:23;6.10;99.90
41944;DHT22;27636;52.610;13.244;2022-11-15T19:09:27;6.10;99.90
41944;DHT22;27636;52.610;13.244;2022-11-15T19:14:34;6.10;99.90
41944;DHT22;27636;52.610;13.244;2022-11-15T19:19:38;6.20;99.90
41944;DHT22;27636;52.610;13.244;2022-11-15T19:24:42;6.20;99.90
41944;DHT22;27636;52.610;13.244;2022-11-15T19:29:46;6.30;99.90
41944;DHT22;27636;52.610;13.244;2022-11-15T19:34:49;6.20;99.90
41944;DHT22;27636;52.610;13.244;2022-11-15T19:39:55;6.20;99.90
41944;DHT22;27636;52.610;13.244;2022-11-15T19:44:59;6.30;99.90
41944;DHT22;27636;52.610;13.244;2022-11-15T19:50:04;6.30;99.90
41944;DHT22;27636;52.610;13.244;2022-11-15T19:55:10;6.30;99.90
41944;DHT22;27636;52.610;13.244;2022-11-15T20:00:13;6.30;99.90
41944;DHT22;27636;52.610;13.244;2022-11-15T20:05:17;6.30;99.90
41944;DHT22;27636;52.610;13.244;2022-11-15T20:10:22;6.40;99.90
41944;DHT22;27636;52.610;13.244;2022-11-15T20:15:25;6.40;99.90
41944;DHT22;27636;52.610;13.244;2022-11-15T20:20:28;6.40;99.90
41944;DHT22;27636;52.610;13.244;2022-11-15T20:25:34;6.40;99.90
41944;DHT22;27636;52.610;13.244;2022-11-15T20:30:41;6.50;99.90
41944;DHT22;27636;52.610;13.244;2022-11-15T20:35:45;6.50;99.90
41944;DHT22;27636;52.610;13.244;2022-11-15T20:40:50;6.50;99.90
41944;DHT22;27636;52.610;13.244;2022-11-15T20:46:00;6.60;99.90
41944;DHT22;27636;52.610;13.244;2022-11-15T20:51:06;6.60;99.90
41944;DHT22;27636;52.610;13.244;2022-11-15T20:56:13;6.60;99.90
41944;DHT22;27636;52.610;13.244;2022-11-15T21:01:18;6.60;99.90
41944;DHT22;27636;52.610;13.244;2022-11-15T21:06:26;6.60;99.90
41944;DHT22;27636;52.610;13.244;2022-11-15T21:11:31;6.50;99.90
41944;DHT22;27636;52.610;13.244;2022-11-15T21:16:53;6.50;99.90
41944;DHT22;27636;52.610;13.244;2022-11-15T21:21:57;6.60;99.90
41944;DHT22;27636;52.610;13.244;2022-11-15T21:27:02;6.50;99.90
41944;DHT22;27636;52.610;13.244;2022-11-15T21:32:06;6.50;99.90
41944;DHT22;27636;52.610;13.244;2022-11-15T21:37:10;6.50;99.90
41944;DHT22;27636;52.610;13.244;2022-11-15T21:42:15;6.50;99.90
41944;DHT22;27636;52.610;13.244;2022-11-15T21:47:18;6.50;99.90
41944;DHT22;27636;52.610;13.244;2022-11-15T21:52:21;6.50;99.90
41944;DHT22;27636;52.610;13.244;2022-11-15T21:57:26;6.50;99.90
41944;DHT22;27636;52.610;13.244;2022-11-15T22:02:32;6.50;99.90
41944;DHT22;27636;52.610;13.244;2022-11-15T22:07:36;6.50;99.90
41944;DHT22;27636;52.610;13.244;2022-11-15T22:12:41;6.50;99.90
41944;DHT22;27636;52.610;13.244;2022-11-15T22:17:44;6.50;99.90
41944;DHT22;27636;52.610;13.244;2022-11-15T22:23:00;6.50;99.90
41944;DHT22;27636;52.610;13.244;2022-11-15T22:28:07;6.50;99.90
41944;DHT22;27636;52.610;13.244;2022-11-15T22:33:11;6.50;99.90
41944;DHT22;27636;52.610;13.244;2022-11-15T22:38:16;6.50;99.90
41944;DHT22;27636;52.610;13.244;2022-11-15T22:43:23;6.30;99.90
41944;DHT22;27636;52.610;13.244;2022-11-15T22:48:29;6.50;99.90
41944;DHT22;27636;52.610;13.244;2022-11-15T22:53:34;6.50;99.90
41944;DHT22;27636;52.610;13.244;2022-11-15T22:58:39;6.50;99.90
41944;DHT22;27636;52.610;13.244;2022-11-15T23:03:43;6.50;99.90
41944;DHT22;27636;52.610;13.244;2022-11-15T23:08:46;6.40;99.90
41944;DHT22;27636;52.610;13.244;2022-11-15T23:13:52;6.40;99.90
41944;DHT22;27636;52.610;13.244;2022-11-15T23:18:56;6.50;99.90
41944;DHT22;27636;52.610;13.244;2022-11-15T23:24:00;6.30;99.90
41944;DHT22;27636;52.610;13.244;2022-11-15T23:29:04;6.40;99.90
41944;DHT22;27636;52.610;13.244;2022-11-15T23:34:09;6.40;99.90
41944;DHT22;27636;52.610;13.244;2022-11-15T23:39:14;6.30;99.90
41944;DHT22;27636;52.610;13.244;2022-11-15T23:44:19;6.20;99.90
41944;DHT22;27636;52.610;13.244;2022-11-15T23:49:22;6.10;99.90
41944;DHT22;27636;52.610;13.244;2022-11-15T23:54:26;6.20;99.90
41944;DHT22;27636;52.610;13.244;2022-11-15T23:59:31;6.20;99.90
